Time;durP1;ratioP1;P1;durP2;ratioP2;P2;SDS_P1;SDS_P2;PMS_P1;PMS_P2;Temp;Humidity;BMP_temperature;BMP_pressure;BME280_temperature;BME280_humidity;BME280_pressure;Samples;Min_cycle;Max_cycle;Signal;HPM_P1;HPM_P2
2021/10/29 00:00:17;;;;;;;12.07;10.70;;;;;;;-138.14;100.00;63448.66;4977603;28;20207;-69
2021/10/29 00:02:59;;;;;;;16.03;12.67;;;;;;;-138.14;100.00;63448.66;4983371;28;20231;-68
2021/10/29 00:05:27;;;;;;;17.67;13.93;;;;;;;-138.14;100.00;63448.66;4993320;28;20221;-68
2021/10/29 00:07:52;;;;;;;16.53;13.70;;;;;;;-138.14;100.00;63448.66;4986884;28;20254;-68
2021/10/29 00:10:19;;;;;;;18.70;14.67;;;;;;;-138.14;100.00;63448.66;4977443;28;20578;-69
2021/10/29 00:12:45;;;;;;;21.57;17.07;;;;;;;-138.14;100.00;63448.66;5011742;28;20165;-69
2021/10/29 00:15:11;;;;;;;18.83;15.03;;;;;;;-138.14;100.00;63448.66;4960973;28;20259;-67
2021/10/29 00:17:36;;;;;;;17.93;14.90;;;;;;;-138.14;100.00;63448.66;4993868;28;20213;-67
2021/10/29 00:20:03;;;;;;;22.90;15.73;;;;;;;-138.14;100.00;63448.66;4978051;28;20197;-67
2021/10/29 00:22:29;;;;;;;21.77;14.80;;;;;;;-138.14;100.00;63448.66;5011081;28;20256;-68
2021/10/29 00:24:54;;;;;;;20.13;14.60;;;;;;;-138.14;100.00;63448.66;4977626;28;20188;-67
2021/10/29 00:27:20;;;;;;;21.77;16.00;;;;;;;-138.14;100.00;63448.66;4993534;28;20225;-69
2021/10/29 00:29:48;;;;;;;22.10;16.60;;;;;;;-138.14;100.00;63448.66;5011603;28;21086;-67
2021/10/29 00:32:16;;;;;;;19.97;16.00;;;;;;;-138.14;100.00;63448.66;4993765;28;20224;-67
2021/10/29 00:34:44;;;;;;;21.60;16.53;;;;;;;-138.14;100.00;63448.66;4978350;28;20242;-69
2021/10/29 00:37:12;;;;;;;21.17;16.23;;;;;;;-138.14;100.00;63448.66;4962734;28;20228;-70
2021/10/29 00:39:38;;;;;;;21.80;16.27;;;;;;;-138.14;100.00;63448.66;4994745;28;20192;-70
2021/10/29 00:42:04;;;;;;;22.70;15.83;;;;;;;-138.14;100.00;63448.66;5011738;28;20647;-68
2021/10/29 00:44:30;;;;;;;18.67;15.57;;;;;;;-138.14;100.00;63448.66;4993856;28;20185;-67
2021/10/29 00:46:56;;;;;;;19.27;15.43;;;;;;;-138.14;100.00;63448.66;4961978;28;20239;-67
2021/10/29 00:49:21;;;;;;;20.83;15.67;;;;;;;-138.14;100.00;63448.66;4994692;28;20185;-67
2021/10/29 00:51:47;;;;;;;20.13;15.50;;;;;;;-138.14;100.00;63448.66;4977970;28;20216;-68
2021/10/29 00:54:15;;;;;;;22.87;16.13;;;;;;;-138.14;100.00;63448.66;5015311;28;20185;-71
2021/10/29 00:56:46;;;;;;;19.07;15.73;;;;;;;-138.14;100.00;63448.66;5014400;28;20224;-69
2021/10/29 00:59:14;;;;;;;21.50;16.87;;;;;;;-138.14;100.00;63448.66;4998129;28;20181;-69
2021/10/29 01:01:42;;;;;;;20.33;15.47;;;;;;;-138.14;100.00;63448.66;5014933;28;20229;-69
2021/10/29 01:04:07;;;;;;;19.30;15.57;;;;;;;-138.14;100.00;63448.66;5015215;28;20662;-69
2021/10/29 01:06:33;;;;;;;24.93;16.60;;;;;;;-138.14;100.00;63448.66;5014560;28;20220;-69
2021/10/29 01:08:59;;;;;;;22.57;17.13;;;;;;;-138.14;100.00;63448.66;5014959;28;20662;-69
2021/10/29 01:11:26;;;;;;;20.53;16.80;;;;;;;-138.14;100.00;63448.66;4996811;28;20222;-69
2021/10/29 01:13:52;;;;;;;22.00;17.43;;;;;;;-138.14;100.00;63448.66;4982816;28;20275;-68
2021/10/29 01:16:17;;;;;;;22.63;17.00;;;;;;;-138.14;100.00;63448.66;4976952;28;20229;-69
2021/10/29 01:18:45;;;;;;;21.30;16.90;;;;;;;-138.14;100.00;63448.66;4978373;28;20216;-69
2021/10/29 01:21:12;;;;;;;24.33;18.50;;;;;;;-138.14;100.00;63448.66;4977194;28;20245;-70
2021/10/29 01:23:38;;;;;;;24.80;17.20;;;;;;;-138.14;100.00;63448.66;4995476;28;20194;-69
2021/10/29 01:26:14;;;;;;;24.70;18.90;;;;;;;-138.14;100.00;63448.66;4976970;28;20217;-68
2021/10/29 01:28:43;;;;;;;24.43;18.93;;;;;;;-138.14;100.00;63448.66;4995303;28;20185;-68
2021/10/29 01:31:09;;;;;;;26.13;18.47;;;;;;;-138.14;100.00;63448.66;4977031;28;20663;-68
2021/10/29 01:33:34;;;;;;;25.00;18.80;;;;;;;-138.14;100.00;63448.66;4995242;28;20217;-69
2021/10/29 01:36:00;;;;;;;25.57;19.37;;;;;;;-138.14;100.00;63448.66;4961855;28;20226;-69
2021/10/29 01:38:45;;;;;;;23.87;18.43;;;;;;;-138.14;100.00;63448.66;5006440;28;20177;-69
2021/10/29 01:41:11;;;;;;;27.77;20.77;;;;;;;-138.14;100.00;63448.66;4979999;28;20225;-69
2021/10/29 01:43:41;;;;;;;24.67;19.40;;;;;;;-138.14;100.00;63448.66;4968008;28;20244;-69
2021/10/29 01:46:06;;;;;;;29.40;21.00;;;;;;;-138.14;100.00;63448.66;4993830;28;20217;-69
2021/10/29 01:48:32;;;;;;;27.63;19.60;;;;;;;-138.14;100.00;63448.66;4994780;28;20667;-68
2021/10/29 01:51:00;;;;;;;27.70;20.67;;;;;;;-138.14;100.00;63448.66;4976523;28;20859;-69
2021/10/29 01:53:27;;;;;;;28.43;20.13;;;;;;;-138.14;100.00;63448.66;4961519;28;20185;-69
2021/10/29 01:55:55;;;;;;;26.27;19.00;;;;;;;-138.14;100.00;63448.66;4960586;28;20221;-70
2021/10/29 01:58:20;;;;;;;25.40;19.47;;;;;;;-138.14;100.00;63448.66;4992967;28;20197;-69
2021/10/29 02:00:46;;;;;;;26.87;19.70;;;;;;;-138.14;100.00;63448.66;5013728;28;20232;-68
2021/10/29 02:03:11;;;;;;;26.33;19.50;;;;;;;-138.14;100.00;63448.66;5013899;28;20292;-67
2021/10/29 02:05:39;;;;;;;27.00;19.30;;;;;;;-138.14;100.00;63448.66;4963488;28;20221;-68
2021/10/29 02:08:05;;;;;;;28.53;20.37;;;;;;;-138.14;100.00;63448.66;5013901;28;20201;-70
2021/10/29 02:10:30;;;;;;;29.00;20.87;;;;;;;-138.14;100.00;63448.66;4980434;28;20223;-69
2021/10/29 02:12:56;;;;;;;28.33;20.60;;;;;;;-138.14;100.00;63448.66;4992619;28;20679;-69
2021/10/29 02:15:22;;;;;;;33.07;21.23;;;;;;;-138.14;100.00;63448.66;4979719;28;20216;-71
2021/10/29 02:17:49;;;;;;;28.63;20.07;;;;;;;-138.14;100.00;63448.66;5014632;28;20192;-69
2021/10/29 02:20:17;;;;;;;29.10;20.27;;;;;;;-138.14;100.00;63448.66;5015893;28;20189;-71
2021/10/29 02:22:43;;;;;;;28.40;19.80;;;;;;;-138.14;100.00;63448.66;5016671;28;20769;-68
2021/10/29 02:25:10;;;;;;;29.40;20.67;;;;;;;-138.14;100.00;63448.66;5012826;28;20189;-69
2021/10/29 02:27:36;;;;;;;30.90;20.53;;;;;;;-138.14;100.00;63448.66;4975139;28;20255;-70
2021/10/29 02:30:03;;;;;;;30.33;20.03;;;;;;;-138.14;100.00;63448.66;5004812;28;20189;-70
2021/10/29 02:32:33;;;;;;;29.53;19.97;;;;;;;-138.14;100.00;63448.66;5021573;28;20220;-69
2021/10/29 02:34:59;;;;;;;29.47;20.13;;;;;;;-138.14;100.00;63448.66;5002881;28;20555;-69
2021/10/29 02:37:25;;;;;;;28.03;20.33;;;;;;;-138.14;100.00;63448.66;5002280;28;20217;-70
2021/10/29 02:39:51;;;;;;;25.93;18.80;;;;;;;-138.14;100.00;63448.66;4982535;28;20192;-69
2021/10/29 02:42:17;;;;;;;30.50;20.77;;;;;;;-138.14;100.00;63448.66;5002434;28;20323;-70
2021/10/29 02:44:42;;;;;;;31.00;21.37;;;;;;;-138.14;100.00;63448.66;5013281;28;20185;-69
2021/10/29 02:47:09;;;;;;;29.87;21.47;;;;;;;-138.14;100.00;63448.66;4979094;28;20233;-69
2021/10/29 02:49:37;;;;;;;33.20;20.67;;;;;;;-138.14;100.00;63448.66;5013182;28;20343;-69
2021/10/29 02:52:08;;;;;;;30.60;20.37;;;;;;;-138.14;100.00;63448.66;4978812;28;20221;-70
2021/10/29 02:54:35;;;;;;;32.23;21.30;;;;;;;-138.14;100.00;63448.66;5012729;28;20568;-68
2021/10/29 02:57:05;;;;;;;29.73;20.37;;;;;;;-138.14;100.00;63448.66;4979810;28;20620;-69
2021/10/29 02:59:31;;;;;;;32.60;21.03;;;;;;;-138.14;100.00;63448.66;5013144;28;20685;-69
2021/10/29 03:01:57;;;;;;;33.87;21.63;;;;;;;-138.14;100.00;63448.66;4994633;28;20237;-69
2021/10/29 03:04:22;;;;;;;33.03;22.33;;;;;;;-138.14;100.00;63448.66;5012403;28;20189;-69
2021/10/29 03:06:48;;;;;;;32.23;21.67;;;;;;;-138.14;100.00;63448.66;5012480;28;20217;-68
2021/10/29 03:09:14;;;;;;;30.97;21.33;;;;;;;-138.14;100.00;63448.66;5012561;28;20260;-69
2021/10/29 03:11:39;;;;;;;31.13;21.57;;;;;;;-138.14;100.00;63448.66;4996759;28;20213;-69
2021/10/29 03:14:05;;;;;;;31.10;20.53;;;;;;;-138.14;100.00;63448.66;5012577;28;20673;-69
2021/10/29 03:16:33;;;;;;;32.07;21.43;;;;;;;-138.14;100.00;63448.66;4993356;28;20270;-69
2021/10/29 03:18:59;;;;;;;29.07;20.37;;;;;;;-138.14;100.00;63448.66;5012712;28;20614;-70
2021/10/29 03:21:24;;;;;;;31.23;20.97;;;;;;;-138.14;100.00;63448.66;4994274;28;20229;-68
2021/10/29 03:23:52;;;;;;;32.23;21.07;;;;;;;-138.14;100.00;63448.66;4994908;28;20208;-69
2021/10/29 03:26:17;;;;;;;31.30;20.53;;;;;;;-138.14;100.00;63448.66;4993966;28;20645;-69
2021/10/29 03:28:43;;;;;;;33.67;20.20;;;;;;;-138.14;100.00;63448.66;4994804;28;20185;-69
2021/10/29 03:31:09;;;;;;;32.67;21.27;;;;;;;-138.14;100.00;63448.66;4994480;28;20209;-70
2021/10/29 03:33:39;;;;;;;28.13;20.07;;;;;;;-138.14;100.00;63448.66;4995051;28;20223;-68
2021/10/29 03:36:07;;;;;;;32.20;21.27;;;;;;;-138.14;100.00;63448.66;4994912;28;20232;-69
2021/10/29 03:41:08;;;;;;;31.40;20.30;;;;;;;-138.14;100.00;63448.66;5011362;28;20572;-71
2021/10/29 03:44:21;;;;;;;34.97;21.27;;;;;;;-138.14;100.00;63448.66;5012007;28;20185;-68
2021/10/29 03:46:25;;;;;;;31.30;20.87;;;;;;;-138.14;100.00;63448.66;4975171;28;20227;-68
2021/10/29 03:51:42;;;;;;;31.50;21.00;;;;;;;-138.14;100.00;63448.66;5011583;28;20217;-68
2021/10/29 03:54:12;;;;;;;34.73;21.37;;;;;;;-138.14;100.00;63448.66;5012027;28;20173;-68
2021/10/29 03:56:42;;;;;;;35.23;22.07;;;;;;;-138.14;100.00;63448.66;5011144;28;20295;-68
2021/10/29 03:59:09;;;;;;;37.00;21.90;;;;;;;-138.14;100.00;63448.66;4963383;28;20181;-68
2021/10/29 04:01:36;;;;;;;34.67;22.53;;;;;;;-138.14;100.00;63448.66;4977510;28;20217;-68
2021/10/29 04:04:02;;;;;;;33.93;21.80;;;;;;;-138.14;100.00;63448.66;4994147;28;20275;-68
2021/10/29 04:06:28;;;;;;;34.23;20.23;;;;;;;-138.14;100.00;63448.66;4993553;28;20299;-68
2021/10/29 04:08:54;;;;;;;35.03;21.17;;;;;;;-138.14;100.00;63448.66;4994241;28;20673;-69
2021/10/29 04:11:24;;;;;;;34.50;22.13;;;;;;;-138.14;100.00;63448.66;5010915;28;20217;-69
2021/10/29 04:13:50;;;;;;;35.90;23.10;;;;;;;-138.14;100.00;63448.66;4999597;28;20189;-68
2021/10/29 04:16:19;;;;;;;35.93;21.77;;;;;;;-138.14;100.00;63448.66;5011012;28;20775;-68
2021/10/29 04:18:45;;;;;;;40.37;22.67;;;;;;;-138.14;100.00;63448.66;4994394;28;20177;-68
2021/10/29 04:21:10;;;;;;;32.47;21.87;;;;;;;-138.14;100.00;63448.66;4977310;28;20646;-69
2021/10/29 04:23:40;;;;;;;33.97;20.30;;;;;;;-138.14;100.00;63448.66;4994078;28;20257;-69
2021/10/29 04:26:06;;;;;;;33.30;20.50;;;;;;;-138.14;100.00;63448.66;5010828;28;20224;-68
2021/10/29 04:28:33;;;;;;;32.03;20.10;;;;;;;-138.14;100.00;63448.66;4993946;28;20212;-68
2021/10/29 04:31:01;;;;;;;32.33;20.87;;;;;;;-138.14;100.00;63448.66;4993359;28;20709;-69
2021/10/29 04:33:29;;;;;;;31.33;20.13;;;;;;;-138.14;100.00;63448.66;4994236;28;20173;-68
2021/10/29 04:35:57;;;;;;;29.93;18.80;;;;;;;-138.14;100.00;63448.66;4992813;28;20266;-69
2021/10/29 04:38:23;;;;;;;35.60;21.37;;;;;;;-138.14;100.00;63448.66;4993332;28;20205;-69
2021/10/29 04:40:51;;;;;;;34.70;20.40;;;;;;;-138.14;100.00;63448.66;4993199;28;20576;-68
2021/10/29 04:43:17;;;;;;;32.73;20.13;;;;;;;-138.14;100.00;63448.66;4986367;28;20185;-69
2021/10/29 04:45:42;;;;;;;34.97;21.20;;;;;;;-138.14;100.00;63448.66;5010414;28;20646;-69
2021/10/29 04:48:08;;;;;;;33.63;20.53;;;;;;;-138.14;100.00;63448.66;4961070;28;20201;-69
2021/10/29 04:50:33;;;;;;;33.20;19.93;;;;;;;-138.14;100.00;63448.66;4977107;28;20247;-69
2021/10/29 04:52:59;;;;;;;31.13;20.00;;;;;;;-138.14;100.00;63448.66;4993813;28;20192;-69
2021/10/29 04:55:25;;;;;;;34.20;20.50;;;;;;;-138.14;100.00;63448.66;4976794;28;20283;-68
2021/10/29 04:57:54;;;;;;;31.13;19.83;;;;;;;-138.14;100.00;63448.66;4993733;28;20197;-70
2021/10/29 05:00:19;;;;;;;35.27;21.70;;;;;;;-138.14;100.00;63448.66;4992430;28;20223;-71
2021/10/29 05:02:48;;;;;;;32.10;20.30;;;;;;;-138.14;100.00;63448.66;5010602;28;20208;-70
2021/10/29 05:05:14;;;;;;;33.63;20.00;;;;;;;-138.14;100.00;63448.66;5026473;28;20195;-69
2021/10/29 05:07:39;;;;;;;31.10;19.47;;;;;;;-138.14;100.00;63448.66;5012072;28;20592;-69
2021/10/29 05:10:06;;;;;;;32.47;19.87;;;;;;;-138.14;100.00;63448.66;5011075;28;20205;-68
2021/10/29 05:12:31;;;;;;;34.87;20.97;;;;;;;-138.14;100.00;63448.66;5001444;28;20296;-68
2021/10/29 05:14:57;;;;;;;31.53;20.80;;;;;;;-138.14;100.00;63448.66;4993323;28;20185;-67
2021/10/29 05:17:22;;;;;;;31.43;20.07;;;;;;;-138.14;100.00;63448.66;5010579;28;20228;-68
2021/10/29 05:19:48;;;;;;;34.07;20.43;;;;;;;-138.14;100.00;63448.66;4993719;28;20177;-68
2021/10/29 05:22:18;;;;;;;37.03;21.60;;;;;;;-138.14;100.00;63448.66;4993072;28;20740;-68
2021/10/29 05:24:48;;;;;;;36.27;20.53;;;;;;;-138.14;100.00;63448.66;4993374;28;20193;-68
2021/10/29 05:27:16;;;;;;;32.70;19.37;;;;;;;-138.14;100.00;63448.66;4976945;28;20714;-70
2021/10/29 05:29:42;;;;;;;31.67;20.10;;;;;;;-138.14;100.00;63448.66;5011159;28;20276;-69
2021/10/29 05:32:10;;;;;;;36.50;20.50;;;;;;;-138.14;100.00;63448.66;4998767;28;20217;-67
2021/10/29 05:34:38;;;;;;;34.43;20.33;;;;;;;-138.14;100.00;63448.66;5002695;28;20208;-67
2021/10/29 05:37:04;;;;;;;36.37;20.73;;;;;;;-138.14;100.00;63448.66;4987920;28;20221;-68
2021/10/29 05:39:31;;;;;;;36.53;20.57;;;;;;;-138.14;100.00;63448.66;4980016;28;20195;-67
2021/10/29 05:42:00;;;;;;;37.40;22.00;;;;;;;-138.14;100.00;63448.66;5000695;28;20224;-67
2021/10/29 05:44:25;;;;;;;37.83;21.23;;;;;;;-138.14;100.00;63448.66;4961034;28;20186;-68
2021/10/29 05:46:51;;;;;;;33.33;20.60;;;;;;;-138.14;100.00;63448.66;4977282;28;20279;-69
2021/10/29 05:49:17;;;;;;;35.93;21.03;;;;;;;-138.14;100.00;63448.66;4977346;28;20720;-68
2021/10/29 05:51:47;;;;;;;33.27;19.93;;;;;;;-138.14;100.00;63448.66;4961766;28;20214;-69
2021/10/29 05:56:58;;;;;;;36.53;19.70;;;;;;;-138.14;100.00;63448.66;4975111;28;20304;-67
2021/10/29 05:59:24;;;;;;;33.97;19.70;;;;;;;-138.14;100.00;63448.66;4960924;28;20185;-67
2021/10/29 06:01:50;;;;;;;35.73;20.67;;;;;;;-138.14;100.00;63448.66;4971783;28;20274;-68
2021/10/29 06:04:15;;;;;;;30.20;18.83;;;;;;;-138.14;100.00;63448.66;4996396;28;20681;-68
2021/10/29 06:06:43;;;;;;;33.90;20.53;;;;;;;-138.14;100.00;63448.66;4996475;28;20596;-68
2021/10/29 06:09:12;;;;;;;29.17;19.17;;;;;;;-138.14;100.00;63448.66;5013612;28;20173;-67
2021/10/29 06:11:37;;;;;;;35.50;20.83;;;;;;;-138.14;100.00;63448.66;4997184;28;20324;-68
2021/10/29 06:14:03;;;;;;;32.33;19.47;;;;;;;-138.14;100.00;63448.66;4999406;28;20188;-68
2021/10/29 06:16:29;;;;;;;30.50;19.30;;;;;;;-138.14;100.00;63448.66;4979282;28;20312;-68
2021/10/29 06:18:55;;;;;;;31.03;18.17;;;;;;;-138.14;100.00;63448.66;5013723;28;20202;-69
2021/10/29 06:21:51;;;;;;;33.50;18.67;;;;;;;-138.14;100.00;63448.66;5013110;28;20229;-70
2021/10/29 06:24:13;;;;;;;32.60;20.07;;;;;;;-138.14;100.00;63448.66;5013134;28;20205;-68
2021/10/29 06:26:47;;;;;;;31.63;18.20;;;;;;;-138.14;100.00;63448.66;4995277;28;20229;-68
2021/10/29 06:29:12;;;;;;;28.47;18.60;;;;;;;-138.14;100.00;63448.66;5013931;28;20185;-69
2021/10/29 06:31:39;;;;;;;32.23;18.57;;;;;;;-138.14;100.00;63448.66;4995517;28;20221;-68
2021/10/29 06:34:05;;;;;;;31.03;19.40;;;;;;;-138.14;100.00;63448.66;4980047;28;20212;-68
2021/10/29 06:36:30;;;;;;;30.00;18.90;;;;;;;-138.14;100.00;63448.66;4979066;28;20224;-68
2021/10/29 06:38:59;;;;;;;30.37;18.17;;;;;;;-138.14;100.00;63448.66;4995488;28;20336;-68
2021/10/29 06:41:27;;;;;;;31.00;18.80;;;;;;;-138.14;100.00;63448.66;4995583;28;20233;-68
2021/10/29 06:49:13;;;;;;;32.90;19.43;;;;;;;-138.14;100.00;63448.66;4990456;28;20193;-69
2021/10/29 07:39:57;;;;;;;34.13;19.43;;;;;;;-138.14;100.00;63448.66;4992097;28;20215;-71
2021/10/29 07:40:44;;;;;;;28.30;18.37;;;;;;;-138.14;100.00;63448.66;5008240;28;20717;-70
2021/10/29 07:43:12;;;;;;;27.27;18.10;;;;;;;-138.14;100.00;63448.66;5022282;28;20610;-70
2021/10/29 07:45:42;;;;;;;23.77;16.93;;;;;;;-138.14;100.00;63448.66;5011417;28;20235;-69
2021/10/29 07:48:07;;;;;;;24.63;16.47;;;;;;;-138.14;100.00;63448.66;5012096;28;20200;-69
2021/10/29 07:50:33;;;;;;;22.17;15.83;;;;;;;-138.14;100.00;63448.66;4993969;28;20286;-67
2021/10/29 07:52:59;;;;;;;24.90;17.37;;;;;;;-138.14;100.00;63448.66;5012121;28;20533;-68
2021/10/29 07:55:26;;;;;;;25.23;16.13;;;;;;;-138.14;100.00;63448.66;5008529;28;20737;-69
2021/10/29 07:58:00;;;;;;;24.23;16.17;;;;;;;-138.14;100.00;63448.66;5000405;28;20201;-69
2021/10/29 08:00:26;;;;;;;22.77;16.40;;;;;;;-138.14;100.00;63448.66;5011325;28;20188;-71
2021/10/29 08:02:51;;;;;;;21.87;15.63;;;;;;;-138.14;100.00;63448.66;5012027;28;20630;-68
2021/10/29 08:05:19;;;;;;;21.47;16.10;;;;;;;-138.14;100.00;63448.66;5029388;28;20220;-69
2021/10/29 08:07:49;;;;;;;22.33;14.80;;;;;;;-138.14;100.00;63448.66;4998774;28;20211;-68
2021/10/29 08:10:14;;;;;;;20.77;14.67;;;;;;;-138.14;100.00;63448.66;4992645;28;20208;-69
2021/10/29 08:12:40;;;;;;;18.50;13.67;;;;;;;-138.14;100.00;63448.66;5011223;28;20185;-68
2021/10/29 08:15:09;;;;;;;19.73;14.00;;;;;;;-138.14;100.00;63448.66;4977090;28;20181;-69
2021/10/29 08:17:36;;;;;;;19.10;13.43;;;;;;;-138.14;100.00;63448.66;4994674;28;20196;-68
2021/10/29 08:20:05;;;;;;;18.17;14.07;;;;;;;-138.14;100.00;63448.66;4994204;28;20177;-69
2021/10/29 08:22:32;;;;;;;18.07;13.43;;;;;;;-138.14;100.00;63448.66;4993572;28;20235;-68
2021/10/29 08:24:58;;;;;;;17.33;13.20;;;;;;;-138.14;100.00;63448.66;5014278;28;20211;-68
2021/10/29 08:27:24;;;;;;;17.60;12.70;;;;;;;-138.14;100.00;63448.66;5002836;28;20220;-68
2021/10/29 08:29:50;;;;;;;18.23;12.67;;;;;;;-138.14;100.00;63448.66;5023171;28;20183;-68
2021/10/29 08:32:18;;;;;;;14.97;12.57;;;;;;;-138.14;100.00;63448.66;5023383;28;20208;-69
2021/10/29 08:34:44;;;;;;;15.70;11.17;;;;;;;-138.14;100.00;63448.66;5011251;28;20271;-69
2021/10/29 08:37:09;;;;;;;14.73;11.93;;;;;;;-138.14;100.00;63448.66;4977672;28;20262;-68
2021/10/29 08:39:37;;;;;;;15.10;11.50;;;;;;;-138.14;100.00;63448.66;4994081;28;20686;-68
2021/10/29 08:42:03;;;;;;;15.57;11.70;;;;;;;-138.14;100.00;63448.66;5011054;28;20225;-68
2021/10/29 08:44:29;;;;;;;15.80;11.57;;;;;;;-138.14;100.00;63448.66;5011416;28;20242;-69
2021/10/29 08:47:01;;;;;;;16.93;11.53;;;;;;;-138.14;100.00;63448.66;4978122;28;20228;-69
2021/10/29 08:49:30;;;;;;;16.10;11.70;;;;;;;-138.14;100.00;63448.66;4995221;28;20181;-67
2021/10/29 08:51:56;;;;;;;15.17;11.03;;;;;;;-138.14;100.00;63448.66;5011177;28;20221;-68
2021/10/29 08:54:22;;;;;;;15.23;10.50;;;;;;;-138.14;100.00;63448.66;4994600;28;20193;-68
2021/10/29 08:56:50;;;;;;;13.97;10.13;;;;;;;-138.14;100.00;63448.66;5002125;28;20227;-70
2021/10/29 08:59:21;;;;;;;14.10;10.87;;;;;;;-138.14;100.00;63448.66;5024952;28;20200;-70
2021/10/29 09:02:09;;;;;;;14.17;10.33;;;;;;;-138.14;100.00;63448.66;5006510;28;20776;-69
2021/10/29 09:16:12;;;;;;;11.33;9.53;;;;;;;-138.14;100.00;63448.66;5007207;28;20668;-68
2021/10/29 09:31:34;;;;;;;9.57;6.93;;;;;;;-138.14;100.00;63448.66;4999503;28;20240;-69
2021/10/29 09:34:01;;;;;;;9.47;6.63;;;;;;;-138.14;100.00;63448.66;4981769;28;20189;-69
2021/10/29 09:36:28;;;;;;;9.20;6.87;;;;;;;-138.14;100.00;63448.66;4997029;28;20638;-70
2021/10/29 09:39:15;;;;;;;7.00;5.93;;;;;;;-138.14;100.00;63448.66;5014717;28;20219;-68
2021/10/29 09:42:00;;;;;;;8.13;6.00;;;;;;;-138.14;100.00;63448.66;4999260;28;20738;-68
2021/10/29 09:44:31;;;;;;;8.77;5.90;;;;;;;-138.14;100.00;63448.66;4996993;28;20268;-69
2021/10/29 09:47:01;;;;;;;8.97;5.57;;;;;;;-138.14;100.00;63448.66;4980865;28;20595;-70
2021/10/29 09:55:11;;;;;;;6.20;4.90;;;;;;;-138.14;100.00;63448.66;4980736;28;20192;-69
2021/10/29 09:57:37;;;;;;;5.47;4.37;;;;;;;-138.14;100.00;63448.66;4999048;28;20228;-69
2021/10/29 10:00:09;;;;;;;5.77;4.17;;;;;;;-138.14;100.00;63448.66;4964631;28;20181;-69
2021/10/29 10:02:42;;;;;;;5.83;4.30;;;;;;;-138.14;100.00;63448.66;4997223;28;20243;-69
2021/10/29 10:05:08;;;;;;;5.17;3.90;;;;;;;-138.14;100.00;63448.66;4995967;28;20196;-68
2021/10/29 10:07:35;;;;;;;4.60;3.70;;;;;;;-138.14;100.00;63448.66;4981996;28;20564;-68
2021/10/29 10:10:05;;;;;;;5.47;3.97;;;;;;;-138.14;100.00;63448.66;4980397;28;20197;-68
2021/10/29 10:12:33;;;;;;;5.67;4.43;;;;;;;-138.14;100.00;63448.66;5004245;28;20248;-69
2021/10/29 10:15:03;;;;;;;7.82;4.45;;;;;;;-138.14;100.00;63448.66;4996870;28;20189;-69
2021/10/29 10:17:28;;;;;;;4.70;3.67;;;;;;;-138.14;100.00;63448.66;4980356;28;20312;-68
2021/10/29 10:19:59;;;;;;;4.40;3.43;;;;;;;-138.14;100.00;63448.66;4996543;28;20177;-69
2021/10/29 10:22:27;;;;;;;6.13;3.30;;;;;;;-138.14;100.00;63448.66;4996222;28;20233;-68
2021/10/29 10:25:06;;;;;;;7.37;3.63;;;;;;;-138.14;100.00;63448.66;4980270;28;20173;-68
2021/10/29 10:30:23;;;;;;;4.28;3.67;;;;;;;-138.14;100.00;63448.66;4997525;28;20563;-68
2021/10/29 10:44:19;;;;;;;6.78;3.83;;;;;;;-138.14;100.00;63448.66;5000210;28;20246;-70
2021/10/29 10:46:49;;;;;;;5.35;3.92;;;;;;;-138.14;100.00;63448.66;4983924;28;20272;-69
2021/10/29 10:49:18;;;;;;;5.18;3.80;;;;;;;-138.14;100.00;63448.66;4995973;28;20272;-69
2021/10/29 10:51:51;;;;;;;5.00;3.80;;;;;;;-138.14;100.00;63448.66;4995516;28;20663;-69
2021/10/29 10:54:26;;;;;;;4.93;4.07;;;;;;;-138.14;100.00;63448.66;5013499;28;20195;-70
2021/10/29 10:57:06;;;;;;;5.03;3.53;;;;;;;-138.14;100.00;63448.66;4995276;28;20228;-70
2021/10/29 11:05:58;;;;;;;4.00;3.50;;;;;;;-138.14;100.00;63448.66;5012853;28;20264;-69
2021/10/29 11:10:23;;;;;;;5.07;3.20;;;;;;;-138.14;100.00;63448.66;4994695;28;20208;-69
2021/10/29 11:12:49;;;;;;;6.40;3.40;;;;;;;-138.14;100.00;63448.66;5012979;28;20200;-69
2021/10/29 11:15:25;;;;;;;3.70;3.33;;;;;;;-138.14;100.00;63448.66;5012290;28;20560;-70
2021/10/29 11:18:16;;;;;;;4.40;3.58;;;;;;;-138.14;100.00;63448.66;4995391;28;20579;-69
2021/10/29 11:23:21;;;;;;;5.38;4.20;;;;;;;-138.14;100.00;63448.66;4978984;28;20596;-69
2021/10/29 11:26:10;;;;;;;6.60;4.72;;;;;;;-138.14;100.00;63448.66;4994504;28;20231;-68
2021/10/29 11:28:46;;;;;;;5.70;4.20;;;;;;;-138.14;100.00;63448.66;4978639;28;20193;-69
2021/10/29 11:31:15;;;;;;;6.15;4.57;;;;;;;-138.14;100.00;63448.66;4995101;28;20224;-68
2021/10/29 11:33:45;;;;;;;4.78;4.28;;;;;;;-138.14;100.00;63448.66;4979556;28;20264;-69
2021/10/29 11:36:14;;;;;;;5.65;3.97;;;;;;;-138.14;100.00;63448.66;4978377;28;20225;-69
2021/10/29 11:38:43;;;;;;;5.28;4.10;;;;;;;-138.14;100.00;63448.66;5012407;28;20216;-70
2021/10/29 11:41:20;;;;;;;5.35;4.63;;;;;;;-138.14;100.00;63448.66;4994286;28;20646;-69
2021/10/29 11:43:46;;;;;;;5.43;4.47;;;;;;;-138.14;100.00;63448.66;5000600;28;20184;-69
2021/10/29 11:46:13;;;;;;;5.75;3.83;;;;;;;-138.14;100.00;63448.66;4977437;28;20282;-70
2021/10/29 11:48:51;;;;;;;5.72;3.63;;;;;;;-138.14;100.00;63448.66;5012278;28;20532;-70
2021/10/29 11:51:19;;;;;;;4.10;3.42;;;;;;;-138.14;100.00;63448.66;4993848;28;20319;-70
2021/10/29 11:53:56;;;;;;;3.22;2.92;;;;;;;-138.14;100.00;63448.66;4995147;28;20708;-69
2021/10/29 12:05:49;;;;;;;4.20;2.97;;;;;;;-138.14;100.00;63448.66;5011705;28;20788;-69
2021/10/29 12:07:35;;;;;;;4.82;3.28;;;;;;;-138.14;100.00;63448.66;4980647;28;20227;-71
2021/10/29 12:10:04;;;;;;;3.50;3.20;;;;;;;-138.14;100.00;63448.66;4978334;28;20275;-71
2021/10/29 12:12:35;;;;;;;4.50;3.20;;;;;;;-138.14;100.00;63448.66;4994129;28;20217;-72
2021/10/29 12:15:08;;;;;;;4.22;3.10;;;;;;;-138.14;100.00;63448.66;4977632;28;20251;-69
2021/10/29 12:17:35;;;;;;;5.85;3.47;;;;;;;-138.14;100.00;63448.66;4990610;28;20220;-70
2021/10/29 12:20:08;;;;;;;3.33;2.83;;;;;;;-138.14;100.00;63448.66;4981721;28;20185;-70
2021/10/29 12:22:40;;;;;;;6.55;3.03;;;;;;;-138.14;100.00;63448.66;4977694;28;20247;-69
2021/10/29 12:27:59;;;;;;;4.68;3.25;;;;;;;-138.14;100.00;63448.66;4978026;28;20208;-70
2021/10/29 12:30:28;;;;;;;4.47;3.22;;;;;;;-138.14;100.00;63448.66;4995030;28;20561;-70
2021/10/29 12:38:54;;;;;;;3.83;2.90;;;;;;;-138.14;100.00;63448.66;5011405;28;20201;-70
2021/10/29 13:03:07;;;;;;;4.63;2.42;;;;;;;-138.14;100.00;63448.66;5000435;28;20223;-71
2021/10/29 13:05:33;;;;;;;2.83;2.45;;;;;;;-138.14;100.00;63448.66;4997185;28;20220;-70
2021/10/29 13:07:58;;;;;;;2.38;2.15;;;;;;;-138.14;100.00;63448.66;5015704;28;20651;-71
2021/10/29 13:10:25;;;;;;;4.10;2.03;;;;;;;-138.14;100.00;63448.66;4996732;28;20192;-71
2021/10/29 13:13:02;;;;;;;3.22;2.10;;;;;;;-138.14;100.00;63448.66;5005589;28;20605;-70
2021/10/29 13:15:31;;;;;;;3.00;2.35;;;;;;;-138.14;100.00;63448.66;5004529;28;20455;-71
2021/10/29 13:18:04;;;;;;;2.50;2.25;;;;;;;-138.14;100.00;63448.66;5014184;28;20625;-70
2021/10/29 14:00:46;;;;;;;2.67;2.00;;;;;;;-138.14;100.00;63448.66;4975486;28;20643;-70
2021/10/29 14:30:33;;;;;;;2.53;2.03;;;;;;;-138.14;100.00;63448.66;4998345;28;20305;-69
2021/10/29 14:35:32;;;;;;;2.37;2.03;;;;;;;-138.14;100.00;63448.66;5011412;28;20568;-70
2021/10/29 14:40:30;;;;;;;3.45;1.98;;;;;;;-138.14;100.00;63448.66;5017593;22;20228;-70
2021/10/29 14:45:43;;;;;;;4.20;2.10;;;;;;;-138.14;100.00;63448.66;5012459;28;20221;-69
2021/10/29 15:01:40;;;;;;;4.00;2.30;;;;;;;-138.14;100.00;63448.66;4959575;28;20297;-70
2021/10/29 15:05:01;;;;;;;3.43;2.20;;;;;;;-138.14;100.00;63448.66;4979744;28;20190;-69